sensor_id;sensor_type;location;lat;lon;timestamp;pressure;altitude;pressure_sealevel;temperature;humidity
18987;BME280;9627;59.236;18.142;2023-03-07T00:00:52;99255.19;;;-8.16;100.00
18987;BME280;9627;59.236;18.142;2023-03-07T00:03:19;99264.03;;;-8.33;100.00
18987;BME280;9627;59.236;18.142;2023-03-07T00:05:46;99255.69;;;-8.49;100.00
18987;BME280;9627;59.236;18.142;2023-03-07T00:08:13;99257.19;;;-8.72;100.00
18987;BME280;9627;59.236;18.142;2023-03-07T00:10:40;99247.78;;;-8.85;100.00
18987;BME280;9627;59.236;18.142;2023-03-07T00:13:09;99255.09;;;-8.79;100.00
18987;BME280;9627;59.236;18.142;2023-03-07T00:15:36;99246.47;;;-8.78;100.00
18987;BME280;9627;59.236;18.142;2023-03-07T00:18:04;99246.28;;;-8.63;100.00
18987;BME280;9627;59.236;18.142;2023-03-07T00:20:31;99241.34;;;-8.66;100.00
18987;BME280;9627;59.236;18.142;2023-03-07T00:22:58;99240.97;;;-8.86;100.00
18987;BME280;9627;59.236;18.142;2023-03-07T00:25:25;99234.38;;;-8.90;100.00
18987;BME280;9627;59.236;18.142;2023-03-07T00:27:52;99234.78;;;-8.96;100.00
18987;BME280;9627;59.236;18.142;2023-03-07T00:30:21;99233.44;;;-9.02;100.00
18987;BME280;9627;59.236;18.142;2023-03-07T00:32:47;99228.88;;;-9.11;100.00
18987;BME280;9627;59.236;18.142;2023-03-07T00:35:14;99232.53;;;-9.15;100.00
18987;BME280;9627;59.236;18.142;2023-03-07T00:37:41;99231.66;;;-9.28;100.00
18987;BME280;9627;59.236;18.142;2023-03-07T00:40:09;99225.63;;;-9.27;100.00
18987;BME280;9627;59.236;18.142;2023-03-07T00:42:36;99228.59;;;-8.94;100.00
18987;BME280;9627;59.236;18.142;2023-03-07T00:45:03;99223.53;;;-8.69;100.00
18987;BME280;9627;59.236;18.142;2023-03-07T00:47:32;99222.81;;;-8.71;100.00
18987;BME280;9627;59.236;18.142;2023-03-07T00:49:58;99218.31;;;-8.42;100.00
18987;BME280;9627;59.236;18.142;2023-03-07T00:52:25;99222.44;;;-8.27;100.00
18987;BME280;9627;59.236;18.142;2023-03-07T00:54:52;99214.94;;;-8.30;100.00
18987;BME280;9627;59.236;18.142;2023-03-07T00:57:19;99219.16;;;-8.41;100.00
18987;BME280;9627;59.236;18.142;2023-03-07T00:59:46;99229.13;;;-8.49;100.00
18987;BME280;9627;59.236;18.142;2023-03-07T01:02:13;99218.31;;;-8.54;100.00
18987;BME280;9627;59.236;18.142;2023-03-07T01:04:42;99213.75;;;-8.64;100.00
18987;BME280;9627;59.236;18.142;2023-03-07T01:07:09;99217.06;;;-8.62;100.00
18987;BME280;9627;59.236;18.142;2023-03-07T01:09:36;99212.53;;;-8.71;100.00
18987;BME280;9627;59.236;18.142;2023-03-07T01:12:03;99219.03;;;-9.04;100.00
18987;BME280;9627;59.236;18.142;2023-03-07T01:14:31;99210.50;;;-9.45;100.00
18987;BME280;9627;59.236;18.142;2023-03-07T01:16:57;99202.88;;;-9.60;100.00
18987;BME280;9627;59.236;18.142;2023-03-07T01:19:24;99202.31;;;-9.65;100.00
18987;BME280;9627;59.236;18.142;2023-03-07T01:21:53;99203.44;;;-9.69;100.00
18987;BME280;9627;59.236;18.142;2023-03-07T01:24:20;99200.97;;;-9.84;100.00
18987;BME280;9627;59.236;18.142;2023-03-07T01:26:47;99196.69;;;-9.98;100.00
18987;BME280;9627;59.236;18.142;2023-03-07T01:29:14;99183.84;;;-9.84;100.00
18987;BME280;9627;59.236;18.142;2023-03-07T01:31:41;99186.19;;;-9.67;100.00
18987;BME280;9627;59.236;18.142;2023-03-07T01:34:07;99174.91;;;-9.37;100.00
18987;BME280;9627;59.236;18.142;2023-03-07T01:36:35;99176.09;;;-9.16;100.00
18987;BME280;9627;59.236;18.142;2023-03-07T01:39:04;99168.06;;;-9.24;100.00
18987;BME280;9627;59.236;18.142;2023-03-07T01:41:32;99169.38;;;-9.31;100.00
18987;BME280;9627;59.236;18.142;2023-03-07T01:43:59;99162.91;;;-9.51;100.00
18987;BME280;9627;59.236;18.142;2023-03-07T01:46:45;99171.63;;;-9.80;100.00
18987;BME280;9627;59.236;18.142;2023-03-07T01:49:17;99167.34;;;-9.94;100.00
18987;BME280;9627;59.236;18.142;2023-03-07T01:51:45;99162.56;;;-9.86;100.00
18987;BME280;9627;59.236;18.142;2023-03-07T01:54:16;99167.28;;;-9.66;100.00
18987;BME280;9627;59.236;18.142;2023-03-07T01:56:44;99166.63;;;-9.28;100.00
18987;BME280;9627;59.236;18.142;2023-03-07T01:59:12;99161.00;;;-9.21;100.00
18987;BME280;9627;59.236;18.142;2023-03-07T02:01:44;99165.91;;;-9.30;100.00
18987;BME280;9627;59.236;18.142;2023-03-07T02:04:12;99161.94;;;-9.36;100.00
18987;BME280;9627;59.236;18.142;2023-03-07T02:06:41;99167.41;;;-9.40;100.00
18987;BME280;9627;59.236;18.142;2023-03-07T02:09:09;99165.34;;;-9.35;100.00
18987;BME280;9627;59.236;18.142;2023-03-07T02:11:40;99159.69;;;-9.40;100.00
18987;BME280;9627;59.236;18.142;2023-03-07T02:14:07;99165.81;;;-9.70;100.00
18987;BME280;9627;59.236;18.142;2023-03-07T02:16:34;99155.97;;;-10.04;100.00
18987;BME280;9627;59.236;18.142;2023-03-07T02:19:02;99152.78;;;-10.07;100.00
18987;BME280;9627;59.236;18.142;2023-03-07T02:21:34;99150.72;;;-10.15;100.00
18987;BME280;9627;59.236;18.142;2023-03-07T02:24:05;99155.31;;;-10.34;100.00
18987;BME280;9627;59.236;18.142;2023-03-07T02:26:38;99149.44;;;-10.64;100.00
18987;BME280;9627;59.236;18.142;2023-03-07T02:29:06;99145.69;;;-10.59;100.00
18987;BME280;9627;59.236;18.142;2023-03-07T02:31:33;99144.31;;;-10.64;100.00
18987;BME280;9627;59.236;18.142;2023-03-07T02:34:00;99139.53;;;-10.70;100.00
18987;BME280;9627;59.236;18.142;2023-03-07T02:36:28;99134.41;;;-10.56;100.00
18987;BME280;9627;59.236;18.142;2023-03-07T02:38:56;99133.13;;;-10.21;100.00
18987;BME280;9627;59.236;18.142;2023-03-07T02:41:24;99133.88;;;-10.06;100.00
18987;BME280;9627;59.236;18.142;2023-03-07T02:43:53;99132.13;;;-9.92;100.00
18987;BME280;9627;59.236;18.142;2023-03-07T02:46:20;99133.28;;;-10.10;100.00
18987;BME280;9627;59.236;18.142;2023-03-07T02:48:47;99122.28;;;-10.12;100.00
18987;BME280;9627;59.236;18.142;2023-03-07T02:51:14;99124.53;;;-9.93;100.00
18987;BME280;9627;59.236;18.142;2023-03-07T02:53:41;99123.50;;;-9.91;100.00
18987;BME280;9627;59.236;18.142;2023-03-07T02:56:08;99120.56;;;-9.85;100.00
18987;BME280;9627;59.236;18.142;2023-03-07T02:58:35;99111.03;;;-9.97;100.00
18987;BME280;9627;59.236;18.142;2023-03-07T03:01:04;99117.16;;;-9.85;100.00
18987;BME280;9627;59.236;18.142;2023-03-07T03:03:31;99105.44;;;-9.89;100.00
18987;BME280;9627;59.236;18.142;2023-03-07T03:05:57;99113.34;;;-10.06;100.00
18987;BME280;9627;59.236;18.142;2023-03-07T03:08:24;99106.72;;;-10.23;100.00
18987;BME280;9627;59.236;18.142;2023-03-07T03:10:52;99106.53;;;-10.20;100.00
18987;BME280;9627;59.236;18.142;2023-03-07T03:13:18;99106.69;;;-10.09;100.00
18987;BME280;9627;59.236;18.142;2023-03-07T03:15:46;99104.31;;;-10.12;100.00
18987;BME280;9627;59.236;18.142;2023-03-07T03:18:14;99114.38;;;-10.09;100.00
18987;BME280;9627;59.236;18.142;2023-03-07T03:20:42;99114.53;;;-10.24;100.00
18987;BME280;9627;59.236;18.142;2023-03-07T03:23:09;99104.19;;;-10.51;100.00
18987;BME280;9627;59.236;18.142;2023-03-07T03:25:35;99104.19;;;-10.65;100.00
18987;BME280;9627;59.236;18.142;2023-03-07T03:28:02;99095.94;;;-10.56;100.00
18987;BME280;9627;59.236;18.142;2023-03-07T03:30:30;99093.47;;;-10.72;100.00
18987;BME280;9627;59.236;18.142;2023-03-07T03:32:59;99098.69;;;-10.59;100.00
18987;BME280;9627;59.236;18.142;2023-03-07T03:35:28;99096.69;;;-10.68;100.00
18987;BME280;9627;59.236;18.142;2023-03-07T03:37:55;99092.19;;;-10.79;100.00
18987;BME280;9627;59.236;18.142;2023-03-07T03:40:22;99087.63;;;-10.74;100.00
18987;BME280;9627;59.236;18.142;2023-03-07T03:42:49;99093.38;;;-10.56;100.00
18987;BME280;9627;59.236;18.142;2023-03-07T03:45:16;99084.22;;;-10.46;100.00
18987;BME280;9627;59.236;18.142;2023-03-07T03:47:43;99083.56;;;-10.35;100.00
18987;BME280;9627;59.236;18.142;2023-03-07T03:50:12;99085.41;;;-10.52;100.00
18987;BME280;9627;59.236;18.142;2023-03-07T03:52:41;99083.69;;;-10.51;100.00
18987;BME280;9627;59.236;18.142;2023-03-07T03:55:09;99088.44;;;-10.45;100.00
18987;BME280;9627;59.236;18.142;2023-03-07T03:57:35;99082.84;;;-10.52;100.00
18987;BME280;9627;59.236;18.142;2023-03-07T04:00:03;99084.31;;;-10.48;100.00
18987;BME280;9627;59.236;18.142;2023-03-07T04:02:32;99080.00;;;-10.47;100.00
18987;BME280;9627;59.236;18.142;2023-03-07T04:04:59;99078.25;;;-10.47;100.00
18987;BME280;9627;59.236;18.142;2023-03-07T04:07:26;99072.84;;;-10.56;100.00
18987;BME280;9627;59.236;18.142;2023-03-07T04:09:55;99071.22;;;-10.57;100.00
18987;BME280;9627;59.236;18.142;2023-03-07T04:12:22;99073.22;;;-10.48;100.00
18987;BME280;9627;59.236;18.142;2023-03-07T04:14:49;99068.19;;;-10.35;100.00
18987;BME280;9627;59.236;18.142;2023-03-07T04:17:16;99064.31;;;-10.42;100.00
18987;BME280;9627;59.236;18.142;2023-03-07T04:19:43;99057.34;;;-10.40;100.00
18987;BME280;9627;59.236;18.142;2023-03-07T04:22:10;99063.41;;;-10.41;100.00
18987;BME280;9627;59.236;18.142;2023-03-07T04:24:37;99068.25;;;-10.37;100.00
18987;BME280;9627;59.236;18.142;2023-03-07T04:27:06;99060.22;;;-10.45;100.00
18987;BME280;9627;59.236;18.142;2023-03-07T04:29:33;99066.34;;;-10.48;100.00
18987;BME280;9627;59.236;18.142;2023-03-07T04:32:00;99065.88;;;-10.54;100.00
18987;BME280;9627;59.236;18.142;2023-03-07T04:34:27;99055.94;;;-10.87;100.00
18987;BME280;9627;59.236;18.142;2023-03-07T04:36:54;99064.78;;;-10.92;100.00
18987;BME280;9627;59.236;18.142;2023-03-07T04:39:21;99061.81;;;-10.85;100.00
18987;BME280;9627;59.236;18.142;2023-03-07T04:41:47;99054.63;;;-10.66;100.00
18987;BME280;9627;59.236;18.142;2023-03-07T04:44:16;99052.34;;;-10.56;100.00
18987;BME280;9627;59.236;18.142;2023-03-07T04:46:45;99056.00;;;-10.46;100.00
18987;BME280;9627;59.236;18.142;2023-03-07T04:49:12;99059.31;;;-10.58;100.00
18987;BME280;9627;59.236;18.142;2023-03-07T04:51:39;99045.97;;;-10.77;100.00
18987;BME280;9627;59.236;18.142;2023-03-07T04:54:05;99048.34;;;-10.74;100.00
18987;BME280;9627;59.236;18.142;2023-03-07T04:56:32;99054.66;;;-10.80;100.00
18987;BME280;9627;59.236;18.142;2023-03-07T04:58:59;99049.31;;;-11.05;100.00
18987;BME280;9627;59.236;18.142;2023-03-07T05:01:28;99047.16;;;-10.97;100.00
18987;BME280;9627;59.236;18.142;2023-03-07T05:03:55;99052.72;;;-10.90;100.00
18987;BME280;9627;59.236;18.142;2023-03-07T05:06:22;99046.31;;;-10.97;100.00
18987;BME280;9627;59.236;18.142;2023-03-07T05:08:49;99040.28;;;-10.96;100.00
18987;BME280;9627;59.236;18.142;2023-03-07T05:11:17;99048.06;;;-10.84;100.00
18987;BME280;9627;59.236;18.142;2023-03-07T05:13:44;99050.16;;;-10.90;100.00
18987;BME280;9627;59.236;18.142;2023-03-07T05:16:11;99042.28;;;-11.01;100.00
18987;BME280;9627;59.236;18.142;2023-03-07T05:18:39;99047.91;;;-11.24;100.00
18987;BME280;9627;59.236;18.142;2023-03-07T05:21:06;99048.94;;;-11.27;100.00
18987;BME280;9627;59.236;18.142;2023-03-07T05:23:33;99041.72;;;-11.20;100.00
18987;BME280;9627;59.236;18.142;2023-03-07T05:26:00;99036.06;;;-10.83;100.00
18987;BME280;9627;59.236;18.142;2023-03-07T05:28:27;99038.88;;;-11.02;100.00
18987;BME280;9627;59.236;18.142;2023-03-07T05:30:55;99036.78;;;-11.09;100.00
18987;BME280;9627;59.236;18.142;2023-03-07T05:33:22;99036.19;;;-10.85;100.00
18987;BME280;9627;59.236;18.142;2023-03-07T05:35:51;99032.13;;;-10.75;100.00
18987;BME280;9627;59.236;18.142;2023-03-07T05:38:19;99029.63;;;-10.48;100.00
18987;BME280;9627;59.236;18.142;2023-03-07T05:40:46;99027.84;;;-10.07;100.00
18987;BME280;9627;59.236;18.142;2023-03-07T05:43:13;99020.00;;;-9.39;100.00
18987;BME280;9627;59.236;18.142;2023-03-07T05:45:40;99028.78;;;-9.04;100.00
18987;BME280;9627;59.236;18.142;2023-03-07T05:48:07;99013.31;;;-8.67;100.00
18987;BME280;9627;59.236;18.142;2023-03-07T05:50:35;99014.63;;;-7.78;100.00
18987;BME280;9627;59.236;18.142;2023-03-07T05:53:04;99020.63;;;-6.97;100.00
18987;BME280;9627;59.236;18.142;2023-03-07T05:55:31;99018.47;;;-6.14;100.00
18987;BME280;9627;59.236;18.142;2023-03-07T05:57:58;99013.91;;;-6.22;100.00
18987;BME280;9627;59.236;18.142;2023-03-07T06:00:25;99016.00;;;-6.27;100.00
18987;BME280;9627;59.236;18.142;2023-03-07T06:02:52;99003.69;;;-5.60;100.00
18987;BME280;9627;59.236;18.142;2023-03-07T06:05:19;99003.34;;;-5.35;100.00
18987;BME280;9627;59.236;18.142;2023-03-07T06:07:46;99007.94;;;-5.38;100.00
18987;BME280;9627;59.236;18.142;2023-03-07T06:10:16;99001.91;;;-5.07;100.00
18987;BME280;9627;59.236;18.142;2023-03-07T06:12:43;99008.31;;;-3.73;100.00
18987;BME280;9627;59.236;18.142;2023-03-07T06:15:10;99009.97;;;-3.62;100.00
18987;BME280;9627;59.236;18.142;2023-03-07T06:17:37;99006.38;;;-3.04;100.00
18987;BME280;9627;59.236;18.142;2023-03-07T06:20:04;99011.50;;;-2.75;100.00
18987;BME280;9627;59.236;18.142;2023-03-07T06:22:31;99007.81;;;-2.46;100.00
18987;BME280;9627;59.236;18.142;2023-03-07T06:24:58;99019.78;;;-2.26;100.00
18987;BME280;9627;59.236;18.142;2023-03-07T06:27:27;99013.56;;;-2.42;100.00
18987;BME280;9627;59.236;18.142;2023-03-07T06:29:57;99011.69;;;-1.43;100.00
18987;BME280;9627;59.236;18.142;2023-03-07T06:32:24;99015.78;;;-0.97;100.00
18987;BME280;9627;59.236;18.142;2023-03-07T06:34:51;99030.34;;;-2.10;100.00
18987;BME280;9627;59.236;18.142;2023-03-07T06:37:18;99034.47;;;-2.44;100.00
18987;BME280;9627;59.236;18.142;2023-03-07T06:39:45;99012.94;;;-1.12;100.00
18987;BME280;9627;59.236;18.142;2023-03-07T06:42:12;99025.09;;;-0.02;100.00
18987;BME280;9627;59.236;18.142;2023-03-07T06:44:40;99021.47;;;0.98;100.00
18987;BME280;9627;59.236;18.142;2023-03-07T06:47:07;99032.09;;;0.72;100.00
18987;BME280;9627;59.236;18.142;2023-03-07T06:49:34;99030.59;;;1.34;100.00
18987;BME280;9627;59.236;18.142;2023-03-07T06:52:01;99032.91;;;1.13;100.00
18987;BME280;9627;59.236;18.142;2023-03-07T06:54:28;99035.38;;;0.74;100.00
18987;BME280;9627;59.236;18.142;2023-03-07T06:56:55;99036.56;;;0.14;100.00
18987;BME280;9627;59.236;18.142;2023-03-07T06:59:22;99025.09;;;-0.02;100.00
18987;BME280;9627;59.236;18.142;2023-03-07T07:01:51;99019.03;;;1.04;100.00
18987;BME280;9627;59.236;18.142;2023-03-07T07:04:18;99030.56;;;0.29;100.00
18987;BME280;9627;59.236;18.142;2023-03-07T07:06:45;99014.00;;;0.94;100.00
18987;BME280;9627;59.236;18.142;2023-03-07T07:09:12;99018.56;;;0.60;100.00
18987;BME280;9627;59.236;18.142;2023-03-07T07:11:39;99017.31;;;-0.61;100.00
18987;BME280;9627;59.236;18.142;2023-03-07T07:14:06;99010.84;;;-0.15;100.00
18987;BME280;9627;59.236;18.142;2023-03-07T07:16:33;99006.53;;;-0.92;100.00
18987;BME280;9627;59.236;18.142;2023-03-07T07:19:02;98999.88;;;-0.94;100.00
18987;BME280;9627;59.236;18.142;2023-03-07T07:21:29;98994.22;;;-1.33;100.00
18987;BME280;9627;59.236;18.142;2023-03-07T07:23:56;99000.00;;;-1.21;100.00
18987;BME280;9627;59.236;18.142;2023-03-07T07:26:23;98990.34;;;-1.99;100.00
18987;BME280;9627;59.236;18.142;2023-03-07T07:28:50;98991.28;;;-1.12;100.00
18987;BME280;9627;59.236;18.142;2023-03-07T07:31:17;98992.16;;;-0.78;100.00
18987;BME280;9627;59.236;18.142;2023-03-07T07:33:44;98989.91;;;-0.73;100.00
18987;BME280;9627;59.236;18.142;2023-03-07T07:36:13;98983.13;;;0.42;100.00
18987;BME280;9627;59.236;18.142;2023-03-07T07:38:40;98980.63;;;-0.75;100.00
18987;BME280;9627;59.236;18.142;2023-03-07T07:41:07;98970.19;;;-0.42;100.00
18987;BME280;9627;59.236;18.142;2023-03-07T07:43:34;98976.78;;;-0.22;100.00
18987;BME280;9627;59.236;18.142;2023-03-07T07:46:01;98975.25;;;-0.40;100.00
18987;BME280;9627;59.236;18.142;2023-03-07T07:48:29;98972.78;;;-0.42;100.00
18987;BME280;9627;59.236;18.142;2023-03-07T07:50:58;98970.41;;;-0.95;100.00
18987;BME280;9627;59.236;18.142;2023-03-07T07:53:27;98972.38;;;-1.40;100.00
18987;BME280;9627;59.236;18.142;2023-03-07T07:55:54;98962.56;;;-1.81;100.00
18987;BME280;9627;59.236;18.142;2023-03-07T07:58:21;98954.69;;;-1.89;100.00
18987;BME280;9627;59.236;18.142;2023-03-07T08:00:48;98957.25;;;-1.36;100.00
18987;BME280;9627;59.236;18.142;2023-03-07T08:03:15;98958.19;;;-1.45;100.00
18987;BME280;9627;59.236;18.142;2023-03-07T08:05:42;98957.81;;;-1.68;100.00
18987;BME280;9627;59.236;18.142;2023-03-07T08:08:09;98953.41;;;-1.67;100.00
18987;BME280;9627;59.236;18.142;2023-03-07T08:10:38;98945.59;;;-2.20;100.00
18987;BME280;9627;59.236;18.142;2023-03-07T08:13:07;98941.22;;;-1.84;100.00
18987;BME280;9627;59.236;18.142;2023-03-07T08:15:34;98938.94;;;-2.05;100.00
18987;BME280;9627;59.236;18.142;2023-03-07T08:18:01;98934.44;;;-1.42;100.00
18987;BME280;9627;59.236;18.142;2023-03-07T08:20:28;98940.84;;;-1.11;100.00
18987;BME280;9627;59.236;18.142;2023-03-07T08:22:55;98937.44;;;-1.29;100.00
18987;BME280;9627;59.236;18.142;2023-03-07T08:25:23;98935.81;;;-1.05;100.00
18987;BME280;9627;59.236;18.142;2023-03-07T08:27:52;98935.50;;;-1.53;100.00
18987;BME280;9627;59.236;18.142;2023-03-07T08:30:19;98935.41;;;-1.43;100.00
18987;BME280;9627;59.236;18.142;2023-03-07T08:32:47;98927.03;;;-1.55;100.00
18987;BME280;9627;59.236;18.142;2023-03-07T08:35:14;98930.06;;;-1.59;100.00
18987;BME280;9627;59.236;18.142;2023-03-07T08:37:41;98923.84;;;-1.66;100.00
18987;BME280;9627;59.236;18.142;2023-03-07T08:40:09;98918.81;;;-1.42;100.00
18987;BME280;9627;59.236;18.142;2023-03-07T08:42:36;98910.03;;;-0.90;100.00
18987;BME280;9627;59.236;18.142;2023-03-07T08:45:06;98915.16;;;-1.32;100.00
18987;BME280;9627;59.236;18.142;2023-03-07T08:47:33;98910.16;;;-1.68;100.00
18987;BME280;9627;59.236;18.142;2023-03-07T08:50:01;98900.69;;;-1.52;100.00
18987;BME280;9627;59.236;18.142;2023-03-07T08:52:28;98892.81;;;-1.85;100.00
18987;BME280;9627;59.236;18.142;2023-03-07T08:54:55;98899.56;;;-1.32;100.00
18987;BME280;9627;59.236;18.142;2023-03-07T08:57:22;98895.25;;;-1.41;100.00
18987;BME280;9627;59.236;18.142;2023-03-07T08:59:49;98894.06;;;-1.72;100.00
18987;BME280;9627;59.236;18.142;2023-03-07T09:02:18;98895.13;;;-1.39;100.00
18987;BME280;9627;59.236;18.142;2023-03-07T09:04:45;98892.81;;;-1.60;100.00
18987;BME280;9627;59.236;18.142;2023-03-07T09:07:12;98889.69;;;-1.20;100.00
18987;BME280;9627;59.236;18.142;2023-03-07T09:09:39;98889.28;;;-1.59;100.00
18987;BME280;9627;59.236;18.142;2023-03-07T09:12:06;98881.44;;;-1.41;100.00
18987;BME280;9627;59.236;18.142;2023-03-07T09:14:33;98892.53;;;-1.06;100.00
18987;BME280;9627;59.236;18.142;2023-03-07T09:17:00;98882.22;;;-1.15;100.00
18987;BME280;9627;59.236;18.142;2023-03-07T09:19:30;98887.16;;;-0.70;100.00
18987;BME280;9627;59.236;18.142;2023-03-07T09:21:57;98879.50;;;-0.72;100.00
18987;BME280;9627;59.236;18.142;2023-03-07T09:24:24;98884.84;;;-0.81;100.00
18987;BME280;9627;59.236;18.142;2023-03-07T09:26:51;98874.66;;;-0.67;100.00
18987;BME280;9627;59.236;18.142;2023-03-07T09:29:18;98881.59;;;-0.75;100.00
18987;BME280;9627;59.236;18.142;2023-03-07T09:31:45;98881.13;;;-1.13;100.00
18987;BME280;9627;59.236;18.142;2023-03-07T09:34:12;98886.47;;;-0.80;100.00
18987;BME280;9627;59.236;18.142;2023-03-07T09:36:41;98883.75;;;-0.63;100.00
18987;BME280;9627;59.236;18.142;2023-03-07T09:39:08;98877.91;;;-0.99;100.00
18987;BME280;9627;59.236;18.142;2023-03-07T09:41:41;98861.56;;;-1.17;100.00
18987;BME280;9627;59.236;18.142;2023-03-07T09:44:16;98861.22;;;-0.80;100.00
18987;BME280;9627;59.236;18.142;2023-03-07T09:46:48;98864.16;;;-0.83;100.00
18987;BME280;9627;59.236;18.142;2023-03-07T09:49:22;98864.34;;;-0.76;100.00
18987;BME280;9627;59.236;18.142;2023-03-07T09:51:56;98859.31;;;-0.70;100.00
18987;BME280;9627;59.236;18.142;2023-03-07T09:54:25;98860.69;;;-0.50;100.00
18987;BME280;9627;59.236;18.142;2023-03-07T09:56:54;98853.41;;;-0.88;100.00
18987;BME280;9627;59.236;18.142;2023-03-07T09:59:23;98849.72;;;-0.69;100.00
18987;BME280;9627;59.236;18.142;2023-03-07T10:01:54;98846.38;;;-0.38;100.00
18987;BME280;9627;59.236;18.142;2023-03-07T10:04:25;98844.13;;;-0.09;100.00
18987;BME280;9627;59.236;18.142;2023-03-07T10:06:56;98842.44;;;-0.50;100.00
18987;BME280;9627;59.236;18.142;2023-03-07T10:09:23;98846.19;;;-0.52;100.00
18987;BME280;9627;59.236;18.142;2023-03-07T10:17:32;98833.97;;;-0.52;100.00
18987;BME280;9627;59.236;18.142;2023-03-07T10:20:10;98810.69;;;-0.45;100.00
18987;BME280;9627;59.236;18.142;2023-03-07T10:22:41;98813.06;;;-0.68;100.00
18987;BME280;9627;59.236;18.142;2023-03-07T10:25:12;98830.28;;;-0.83;100.00
18987;BME280;9627;59.236;18.142;2023-03-07T10:27:42;98818.16;;;-0.58;100.00
18987;BME280;9627;59.236;18.142;2023-03-07T10:30:12;98816.03;;;-0.55;100.00
18987;BME280;9627;59.236;18.142;2023-03-07T10:32:42;98811.72;;;-0.80;100.00
18987;BME280;9627;59.236;18.142;2023-03-07T10:35:14;98809.81;;;-0.70;100.00
18987;BME280;9627;59.236;18.142;2023-03-07T10:37:44;98790.25;;;-0.74;100.00
18987;BME280;9627;59.236;18.142;2023-03-07T10:40:16;98803.91;;;-0.80;100.00
18987;BME280;9627;59.236;18.142;2023-03-07T10:42:43;98787.31;;;-0.79;100.00
18987;BME280;9627;59.236;18.142;2023-03-07T10:45:11;98787.03;;;-0.60;100.00
18987;BME280;9627;59.236;18.142;2023-03-07T10:47:38;98783.00;;;-0.38;100.00
18987;BME280;9627;59.236;18.142;2023-03-07T10:50:11;98788.22;;;-0.22;100.00
18987;BME280;9627;59.236;18.142;2023-03-07T10:52:46;98777.41;;;-0.75;100.00
18987;BME280;9627;59.236;18.142;2023-03-07T10:55:30;98768.75;;;-0.76;100.00
18987;BME280;9627;59.236;18.142;2023-03-07T10:58:10;98772.91;;;-0.99;100.00
18987;BME280;9627;59.236;18.142;2023-03-07T11:00:37;98764.63;;;-1.11;100.00
18987;BME280;9627;59.236;18.142;2023-03-07T11:03:05;98768.63;;;-0.74;100.00
18987;BME280;9627;59.236;18.142;2023-03-07T11:05:46;98753.75;;;-0.82;100.00
18987;BME280;9627;59.236;18.142;2023-03-07T11:08:21;98760.28;;;-0.78;100.00
18987;BME280;9627;59.236;18.142;2023-03-07T11:10:50;98747.63;;;-0.73;100.00
18987;BME280;9627;59.236;18.142;2023-03-07T11:13:18;98737.22;;;-0.65;100.00
18987;BME280;9627;59.236;18.142;2023-03-07T11:15:46;98745.34;;;-0.60;100.00
18987;BME280;9627;59.236;18.142;2023-03-07T11:18:26;98731.94;;;-0.89;100.00
18987;BME280;9627;59.236;18.142;2023-03-07T11:20:54;98719.75;;;-0.72;100.00
18987;BME280;9627;59.236;18.142;2023-03-07T11:23:23;98711.13;;;-0.81;100.00
18987;BME280;9627;59.236;18.142;2023-03-07T11:25:51;98726.53;;;-1.04;100.00
18987;BME280;9627;59.236;18.142;2023-03-07T11:28:26;98707.81;;;-0.99;100.00
18987;BME280;9627;59.236;18.142;2023-03-07T11:30:55;98705.91;;;-0.89;100.00
18987;BME280;9627;59.236;18.142;2023-03-07T11:33:27;98691.59;;;-0.37;100.00
18987;BME280;9627;59.236;18.142;2023-03-07T11:36:00;98698.59;;;-0.53;100.00
18987;BME280;9627;59.236;18.142;2023-03-07T11:38:33;98694.88;;;-0.35;100.00
18987;BME280;9627;59.236;18.142;2023-03-07T11:41:03;98682.63;;;-0.58;100.00
18987;BME280;9627;59.236;18.142;2023-03-07T11:43:42;98684.44;;;-0.51;100.00
18987;BME280;9627;59.236;18.142;2023-03-07T11:46:13;98672.06;;;-0.65;100.00
18987;BME280;9627;59.236;18.142;2023-03-07T11:48:49;98684.88;;;-0.87;100.00
18987;BME280;9627;59.236;18.142;2023-03-07T11:51:23;98661.47;;;-0.96;100.00
18987;BME280;9627;59.236;18.142;2023-03-07T11:53:58;98657.34;;;-1.14;100.00
18987;BME280;9627;59.236;18.142;2023-03-07T11:56:28;98656.59;;;-0.82;100.00
18987;BME280;9627;59.236;18.142;2023-03-07T11:59:11;98656.75;;;-0.76;100.00
18987;BME280;9627;59.236;18.142;2023-03-07T12:01:41;98653.97;;;-0.66;100.00
18987;BME280;9627;59.236;18.142;2023-03-07T12:04:19;98652.81;;;-0.96;100.00
18987;BME280;9627;59.236;18.142;2023-03-07T12:06:55;98637.53;;;-0.67;100.00
18987;BME280;9627;59.236;18.142;2023-03-07T12:09:31;98619.47;;;-0.84;100.00
18987;BME280;9627;59.236;18.142;2023-03-07T12:12:08;98633.59;;;-0.95;100.00
18987;BME280;9627;59.236;18.142;2023-03-07T12:14:41;98639.81;;;-0.88;100.00
18987;BME280;9627;59.236;18.142;2023-03-07T12:17:15;98622.88;;;-0.68;100.00
18987;BME280;9627;59.236;18.142;2023-03-07T12:22:34;98624.16;;;-1.20;100.00
18987;BME280;9627;59.236;18.142;2023-03-07T12:25:10;98629.84;;;-1.17;100.00
18987;BME280;9627;59.236;18.142;2023-03-07T12:27:42;98614.38;;;-1.18;100.00
18987;BME280;9627;59.236;18.142;2023-03-07T12:30:12;98599.28;;;-0.99;100.00
18987;BME280;9627;59.236;18.142;2023-03-07T12:32:40;98586.88;;;-1.05;100.00
18987;BME280;9627;59.236;18.142;2023-03-07T12:35:09;98583.31;;;-1.12;100.00
18987;BME280;9627;59.236;18.142;2023-03-07T12:37:43;98569.31;;;-1.03;100.00
18987;BME280;9627;59.236;18.142;2023-03-07T12:40:16;98576.97;;;-1.01;100.00
18987;BME280;9627;59.236;18.142;2023-03-07T12:42:47;98587.88;;;-1.14;100.00
18987;BME280;9627;59.236;18.142;2023-03-07T12:45:19;98574.53;;;-1.11;100.00
18987;BME280;9627;59.236;18.142;2023-03-07T12:47:58;98569.31;;;-1.03;100.00
18987;BME280;9627;59.236;18.142;2023-03-07T12:50:26;98566.38;;;-0.75;100.00
18987;BME280;9627;59.236;18.142;2023-03-07T12:52:57;98582.34;;;-1.03;100.00
18987;BME280;9627;59.236;18.142;2023-03-07T12:55:30;98553.03;;;-0.97;100.00
18987;BME280;9627;59.236;18.142;2023-03-07T12:58:01;98558.09;;;-0.87;100.00
18987;BME280;9627;59.236;18.142;2023-03-07T13:00:29;98566.56;;;-0.93;100.00
18987;BME280;9627;59.236;18.142;2023-03-07T13:02:59;98538.25;;;-1.04;100.00